createdAt,value
2018-03-14T00:00:51.910Z,14.50
2018-03-14T00:01:51.738Z,12.30
2018-03-14T00:02:51.658Z,13.30
2018-03-14T00:03:51.606Z,14.90
2018-03-14T00:04:51.472Z,14.80
2018-03-14T00:05:51.380Z,14.40
2018-03-14T00:06:51.357Z,9.40
2018-03-14T00:07:51.190Z,13.60
2018-03-14T00:08:51.060Z,13.90
2018-03-14T00:09:50.969Z,14.00
2018-03-14T00:10:50.866Z,13.60
2018-03-14T00:11:50.814Z,14.80
2018-03-14T00:12:50.748Z,14.20
2018-03-14T00:13:50.593Z,14.80
2018-03-14T00:14:50.479Z,14.10
2018-03-14T00:15:50.387Z,14.10
2018-03-14T00:16:50.311Z,13.20
2018-03-14T00:17:50.205Z,14.20
2018-03-14T00:18:50.185Z,14.70
2018-03-14T00:19:50.028Z,13.60
2018-03-14T00:20:49.915Z,10.10
2018-03-14T00:21:49.843Z,11.50
2018-03-14T00:22:49.755Z,13.40
2018-03-14T00:23:49.656Z,14.20
2018-03-14T00:24:49.576Z,11.80
2018-03-14T00:25:49.449Z,14.70
2018-03-14T00:26:49.361Z,13.80
2018-03-14T00:27:49.269Z,13.80
2018-03-14T00:28:49.183Z,9.00
2018-03-14T00:29:49.075Z,10.60
2018-03-14T00:30:49.025Z,8.40
2018-03-14T00:31:48.895Z,11.40
2018-03-14T00:32:48.799Z,11.60
2018-03-14T00:33:48.711Z,12.80
2018-03-14T00:34:48.648Z,13.00
2018-03-14T00:35:48.533Z,10.70
2018-03-14T00:36:48.490Z,12.30
2018-03-14T00:37:48.320Z,13.80
2018-03-14T00:38:48.201Z,14.10
2018-03-14T00:39:48.114Z,10.90
2018-03-14T00:40:48.025Z,11.80
2018-03-14T00:41:47.923Z,12.50
2018-03-14T00:42:47.859Z,11.90
2018-03-14T00:43:47.741Z,11.90
2018-03-14T00:44:47.654Z,12.90
2018-03-14T00:45:47.571Z,9.40
2018-03-14T00:46:47.446Z,12.80
2018-03-14T00:47:47.353Z,13.30
2018-03-14T00:48:47.294Z,11.40
2018-03-14T00:49:47.160Z,12.30
2018-03-14T00:50:47.067Z,11.60
2018-03-14T00:51:47.003Z,11.30
2018-03-14T00:52:46.876Z,10.30
2018-03-14T00:53:46.814Z,13.20
2018-03-14T00:54:46.749Z,13.80
2018-03-14T00:55:46.626Z,9.80
2018-03-14T00:56:46.524Z,8.90
2018-03-14T00:57:46.404Z,11.90
2018-03-14T00:58:46.331Z,10.40
2018-03-14T00:59:46.240Z,10.20
2018-03-14T01:00:46.168Z,11.20
2018-03-14T01:01:46.050Z,12.50
2018-03-14T01:02:45.962Z,12.30
2018-03-14T01:03:45.853Z,10.50
2018-03-14T01:04:45.790Z,9.60
2018-03-14T01:05:45.650Z,12.00
2018-03-14T01:06:45.568Z,12.20
2018-03-14T01:07:45.439Z,13.20
2018-03-14T01:08:45.356Z,10.10
2018-03-14T01:09:45.283Z,12.60
2018-03-14T01:10:45.156Z,12.80
2018-03-14T01:11:45.055Z,12.00
2018-03-14T01:12:45.039Z,13.10
2018-03-14T01:13:44.879Z,12.80
2018-03-14T01:14:45.702Z,10.00
2018-03-14T01:15:44.661Z,12.30
2018-03-14T01:16:44.596Z,13.20
2018-03-14T01:17:44.485Z,10.60
2018-03-14T01:18:44.427Z,11.90
2018-03-14T01:19:44.294Z,12.80
2018-03-14T01:20:44.228Z,13.80
2018-03-14T01:21:44.104Z,12.40
2018-03-14T01:22:44.026Z,12.60
2018-03-14T01:23:43.909Z,13.70
2018-03-14T01:24:43.857Z,11.40
2018-03-14T01:25:43.748Z,13.10
2018-03-14T01:26:43.631Z,12.50
2018-03-14T01:27:43.539Z,11.50
2018-03-14T01:28:43.467Z,11.50
2018-03-14T01:29:43.336Z,13.40
2018-03-14T01:30:43.364Z,13.10
2018-03-14T01:31:43.154Z,14.00
2018-03-14T01:32:43.047Z,11.40
2018-03-14T01:33:42.939Z,15.30
2018-03-14T01:34:42.854Z,14.90
2018-03-14T01:35:42.744Z,11.50
2018-03-14T01:36:42.705Z,12.80
2018-03-14T01:37:42.567Z,13.00
2018-03-14T01:38:42.491Z,12.60
2018-03-14T01:39:42.399Z,14.60
2018-03-14T01:40:42.298Z,16.00
2018-03-14T01:41:42.216Z,11.20
2018-03-14T01:42:42.165Z,14.90
2018-03-14T01:43:42.003Z,13.00
2018-03-14T01:44:41.934Z,15.10
2018-03-14T01:45:41.862Z,10.80
2018-03-14T01:46:41.739Z,14.00
2018-03-14T01:47:41.673Z,13.20
2018-03-14T01:48:41.630Z,14.10
2018-03-14T01:49:41.486Z,15.50
2018-03-14T01:50:41.395Z,16.60
2018-03-14T01:51:41.319Z,15.00
2018-03-14T01:52:41.174Z,13.90
2018-03-14T01:53:41.114Z,13.60
2018-03-14T01:54:41.040Z,12.40
2018-03-14T01:55:40.902Z,14.60
2018-03-14T01:56:40.807Z,13.20
2018-03-14T01:57:40.736Z,15.40
2018-03-14T01:58:40.617Z,14.50
2018-03-14T01:59:40.511Z,14.10
2018-03-14T02:00:40.449Z,16.20
2018-03-14T02:01:40.324Z,16.00
2018-03-14T02:02:40.237Z,17.20
2018-03-14T02:03:40.092Z,16.60
2018-03-14T02:04:40.002Z,15.20
2018-03-14T02:05:39.921Z,15.60
2018-03-14T02:06:39.892Z,10.30
2018-03-14T02:07:39.751Z,14.40
2018-03-14T02:08:39.619Z,15.60
2018-03-14T02:09:39.536Z,11.80
2018-03-14T02:10:39.430Z,13.60
2018-03-14T02:11:39.352Z,16.30
2018-03-14T02:12:39.279Z,15.90
2018-03-14T02:13:39.158Z,14.80
2018-03-14T02:14:39.070Z,16.20
2018-03-14T02:15:38.976Z,14.00
2018-03-14T02:16:38.880Z,15.80
2018-03-14T02:17:38.776Z,15.80
2018-03-14T02:18:38.726Z,18.00
2018-03-14T02:19:38.578Z,16.70
2018-03-14T02:20:38.480Z,16.30
2018-03-14T02:21:38.399Z,14.20
2018-03-14T02:22:38.320Z,13.50
2018-03-14T02:23:38.212Z,13.50
2018-03-14T02:24:38.198Z,11.60
2018-03-14T02:25:38.007Z,13.20
2018-03-14T02:26:37.903Z,14.40
2018-03-14T02:27:37.823Z,13.90
2018-03-14T02:28:37.749Z,15.00
2018-03-14T02:29:37.669Z,15.70
2018-03-14T02:30:37.553Z,13.50
2018-03-14T02:31:37.433Z,14.90
2018-03-14T02:32:37.343Z,14.10
2018-03-14T02:33:37.240Z,16.90
2018-03-14T02:34:37.144Z,14.40
2018-03-14T02:35:37.053Z,12.80
2018-03-14T02:36:36.990Z,13.90
2018-03-14T02:37:36.855Z,14.00
2018-03-14T02:38:36.771Z,14.40
2018-03-14T02:39:36.707Z,15.50
2018-03-14T02:40:36.589Z,14.90
2018-03-14T02:41:36.483Z,16.70
2018-03-14T02:42:36.461Z,14.20
2018-03-14T02:43:36.314Z,13.80
2018-03-14T02:44:36.209Z,14.90
2018-03-14T02:45:36.141Z,13.40
2018-03-14T02:46:36.029Z,13.30
2018-03-14T02:47:35.920Z,13.20
2018-03-14T02:48:35.879Z,12.00
2018-03-14T02:49:35.747Z,16.20
2018-03-14T02:50:35.649Z,11.90
2018-03-14T02:51:35.524Z,13.20
2018-03-14T02:52:35.442Z,13.20
2018-03-14T02:53:35.338Z,13.30
2018-03-14T02:54:35.296Z,14.50
2018-03-14T02:55:35.152Z,14.60
2018-03-14T02:56:35.063Z,15.90
2018-03-14T02:57:34.951Z,15.40
2018-03-14T02:58:34.861Z,12.50
2018-03-14T02:59:34.772Z,10.50
2018-03-14T03:00:34.718Z,12.80
2018-03-14T03:01:34.574Z,13.60
2018-03-14T03:02:34.479Z,14.20
2018-03-14T03:03:34.380Z,17.70
2018-03-14T03:04:34.314Z,11.10
2018-03-14T03:05:34.219Z,12.40
2018-03-14T03:06:34.142Z,15.90
2018-03-14T03:07:34.036Z,14.40
2018-03-14T03:08:33.940Z,16.60
2018-03-14T03:09:33.850Z,16.60
2018-03-14T03:10:33.735Z,10.80
2018-03-14T03:11:33.655Z,17.10
2018-03-14T03:12:33.571Z,18.00
2018-03-14T03:13:33.460Z,16.00
2018-03-14T03:14:33.371Z,12.40
2018-03-14T03:15:33.269Z,9.60
2018-03-14T03:16:33.170Z,14.40
2018-03-14T03:17:33.084Z,11.70
2018-03-14T03:18:33.010Z,17.30
2018-03-14T03:19:32.870Z,14.50
2018-03-14T03:20:32.774Z,14.80
2018-03-14T03:21:32.665Z,16.40
2018-03-14T03:22:32.571Z,15.50
2018-03-14T03:23:32.474Z,11.20
2018-03-14T03:24:32.410Z,15.70
2018-03-14T03:25:32.306Z,16.40
2018-03-14T03:26:32.184Z,14.50
2018-03-14T03:27:32.108Z,12.40
2018-03-14T03:28:32.006Z,11.60
2018-03-14T03:29:31.915Z,15.90
2018-03-14T03:30:31.851Z,14.10
2018-03-14T03:31:31.724Z,12.90
2018-03-14T03:32:31.649Z,10.00
2018-03-14T03:33:31.529Z,10.40
2018-03-14T03:34:31.445Z,15.30
2018-03-14T03:35:31.330Z,17.30
2018-03-14T03:36:31.311Z,15.70
2018-03-14T03:37:31.179Z,11.00
2018-03-14T03:38:31.060Z,10.90
2018-03-14T03:39:30.986Z,13.40
2018-03-14T03:40:30.874Z,19.20
2018-03-14T03:41:30.809Z,15.90
2018-03-14T03:42:30.727Z,13.60
2018-03-14T03:43:30.595Z,13.10
2018-03-14T03:44:30.511Z,14.10
2018-03-14T03:45:30.386Z,17.60
2018-03-14T03:46:30.304Z,10.70
2018-03-14T03:47:30.201Z,14.50
2018-03-14T03:48:30.135Z,10.70
2018-03-14T03:49:30.009Z,14.00
2018-03-14T03:50:29.898Z,13.00
2018-03-14T03:51:29.809Z,17.60
2018-03-14T03:52:29.724Z,15.70
2018-03-14T03:53:29.616Z,9.40
2018-03-14T03:54:29.625Z,12.20
2018-03-14T03:55:29.451Z,13.80
2018-03-14T03:56:29.329Z,12.70
2018-03-14T03:57:29.252Z,10.40
2018-03-14T03:58:29.159Z,14.90
2018-03-14T03:59:29.068Z,15.90
2018-03-14T04:00:29.020Z,11.50
2018-03-14T04:01:28.884Z,10.60
2018-03-14T04:02:28.784Z,10.70
2018-03-14T04:03:28.683Z,10.90
2018-03-14T04:04:28.594Z,8.90
2018-03-14T04:05:28.515Z,13.10
2018-03-14T04:06:28.456Z,14.10
2018-03-14T04:07:28.292Z,14.00
2018-03-14T04:08:28.207Z,13.80
2018-03-14T04:09:28.121Z,15.70
2018-03-14T04:10:28.018Z,13.70
2018-03-14T04:11:27.927Z,14.00
2018-03-14T04:12:27.906Z,14.80
2018-03-14T04:13:27.726Z,11.50
2018-03-14T04:14:27.623Z,10.30
2018-03-14T04:15:27.532Z,15.30
2018-03-14T04:16:27.423Z,14.90
2018-03-14T04:17:27.338Z,15.80
2018-03-14T04:18:27.312Z,15.00
2018-03-14T04:19:27.154Z,14.90
2018-03-14T04:20:27.059Z,11.90
2018-03-14T04:21:26.942Z,15.40
2018-03-14T04:22:26.885Z,13.70
2018-03-14T04:23:26.776Z,15.90
2018-03-14T04:24:26.731Z,13.10
2018-03-14T04:25:26.585Z,12.90
2018-03-14T04:26:26.503Z,13.30
2018-03-14T04:27:26.419Z,13.80
2018-03-14T04:28:26.322Z,12.80
2018-03-14T04:29:26.225Z,13.70
2018-03-14T04:30:26.189Z,10.30
2018-03-14T04:31:26.015Z,15.40
2018-03-14T04:32:25.926Z,13.30
2018-03-14T04:33:25.847Z,12.20
2018-03-14T04:34:25.724Z,13.50
2018-03-14T04:35:25.657Z,13.10
2018-03-14T04:36:25.567Z,12.20
2018-03-14T04:37:25.449Z,12.30
2018-03-14T04:38:25.340Z,9.10
2018-03-14T04:39:25.253Z,9.20
2018-03-14T04:40:25.163Z,8.80
2018-03-14T04:41:25.045Z,8.80
2018-03-14T04:42:24.985Z,21.90
2018-03-14T04:43:25.692Z,14.80
2018-03-14T04:44:24.794Z,19.40
2018-03-14T04:45:24.674Z,16.50
2018-03-14T04:46:24.578Z,14.00
2018-03-14T04:47:24.479Z,13.60
2018-03-14T04:48:24.417Z,8.80
2018-03-14T04:49:24.332Z,8.60
2018-03-14T04:50:24.198Z,10.40
2018-03-14T04:51:24.134Z,11.70
2018-03-14T04:52:24.020Z,11.60
2018-03-14T04:53:23.928Z,13.80
2018-03-14T04:54:23.854Z,13.00
2018-03-14T04:55:23.760Z,12.30
2018-03-14T04:56:23.699Z,12.50
2018-03-14T04:57:23.552Z,13.20
2018-03-14T04:58:23.462Z,14.20
2018-03-14T04:59:23.376Z,16.50
2018-03-14T05:00:23.294Z,11.00
2018-03-14T05:01:23.152Z,9.70
2018-03-14T05:02:23.076Z,13.70
2018-03-14T05:03:22.944Z,14.00
2018-03-14T05:04:22.874Z,16.10
2018-03-14T05:05:22.782Z,12.80
2018-03-14T05:06:22.735Z,12.70
2018-03-14T05:07:22.573Z,14.60
2018-03-14T05:08:22.488Z,14.10
2018-03-14T05:09:22.373Z,13.60
2018-03-14T05:10:22.295Z,15.00
2018-03-14T05:11:22.192Z,15.10
2018-03-14T05:12:22.133Z,16.30
2018-03-14T05:13:22.000Z,16.30
2018-03-14T05:14:21.928Z,14.60
2018-03-14T05:15:21.821Z,12.80
2018-03-14T05:16:21.713Z,13.90
2018-03-14T05:17:21.618Z,14.00
2018-03-14T05:18:21.606Z,14.10
2018-03-14T05:19:21.443Z,15.70
2018-03-14T05:20:21.361Z,14.10
2018-03-14T05:21:21.218Z,15.70
2018-03-14T05:22:21.173Z,16.20
2018-03-14T05:23:21.072Z,13.90
2018-03-14T05:24:21.005Z,10.60
2018-03-14T05:25:20.882Z,12.50
2018-03-14T05:26:20.779Z,21.00
2018-03-14T05:27:20.690Z,16.80
2018-03-14T05:28:20.598Z,10.90
2018-03-14T05:29:20.492Z,11.30
2018-03-14T05:30:20.420Z,14.30
2018-03-14T05:31:20.302Z,11.30
2018-03-14T05:32:20.227Z,17.00
2018-03-14T05:33:20.101Z,10.90
2018-03-14T05:34:20.007Z,13.60
2018-03-14T05:35:19.890Z,14.20
2018-03-14T05:36:19.859Z,13.90
2018-03-14T05:37:19.734Z,17.60
2018-03-14T05:38:19.607Z,17.70
2018-03-14T05:39:19.525Z,14.70
2018-03-14T05:40:19.433Z,14.70
2018-03-14T05:41:19.341Z,13.50
2018-03-14T05:42:19.326Z,9.40
2018-03-14T05:43:19.150Z,15.10
2018-03-14T05:44:19.071Z,14.30
2018-03-14T05:45:18.979Z,14.00
2018-03-14T05:46:18.871Z,14.30
2018-03-14T05:47:18.775Z,12.20
2018-03-14T05:48:18.723Z,13.40
2018-03-14T05:49:18.594Z,13.70
2018-03-14T05:50:18.480Z,14.30
2018-03-14T05:51:18.388Z,13.60
2018-03-14T05:52:18.274Z,12.30
2018-03-14T05:53:18.206Z,13.30
2018-03-14T05:54:18.145Z,13.40
2018-03-14T05:55:18.030Z,9.30
2018-03-14T05:56:17.927Z,12.70
2018-03-14T05:57:17.819Z,13.20
2018-03-14T05:58:17.708Z,14.10
2018-03-14T05:59:17.638Z,8.60
2018-03-14T06:00:17.570Z,11.80
2018-03-14T06:01:17.440Z,12.60
2018-03-14T06:02:17.346Z,14.00
2018-03-14T06:03:17.236Z,8.40
2018-03-14T06:04:17.141Z,8.40
2018-03-14T06:05:17.034Z,10.30
2018-03-14T06:06:17.043Z,13.50
2018-03-14T06:07:16.879Z,13.90
2018-03-14T06:08:16.765Z,14.40
2018-03-14T06:09:16.679Z,10.90
2018-03-14T06:10:16.606Z,8.30
2018-03-14T06:11:16.514Z,10.10
2018-03-14T06:12:16.417Z,8.50
2018-03-14T06:13:16.296Z,9.50
2018-03-14T06:14:16.235Z,13.90
2018-03-14T06:15:16.130Z,14.40
2018-03-14T06:16:16.015Z,15.30
2018-03-14T06:17:15.929Z,13.40
2018-03-14T06:18:15.896Z,11.20
2018-03-14T06:19:15.749Z,11.80
2018-03-14T06:20:15.635Z,11.00
2018-03-14T06:21:15.529Z,8.70
2018-03-14T06:22:15.481Z,11.20
2018-03-14T06:23:15.331Z,13.10
2018-03-14T06:24:15.296Z,12.90
2018-03-14T06:25:15.151Z,13.10
2018-03-14T06:26:15.054Z,12.10
2018-03-14T06:27:14.943Z,12.00
2018-03-14T06:28:14.857Z,11.40
2018-03-14T06:29:14.775Z,12.90
2018-03-14T06:30:14.720Z,13.10
2018-03-14T06:31:14.574Z,14.00
2018-03-14T06:32:14.470Z,13.70
2018-03-14T06:33:14.393Z,13.60
2018-03-14T06:34:14.292Z,13.10
2018-03-14T06:35:14.193Z,12.70
2018-03-14T06:36:14.152Z,13.60
2018-03-14T06:37:14.043Z,14.10
2018-03-14T06:38:13.938Z,13.50
2018-03-14T06:39:13.827Z,13.90
2018-03-14T06:40:13.752Z,14.00
2018-03-14T06:41:13.672Z,14.90
2018-03-14T06:42:13.632Z,13.40
2018-03-14T06:43:13.498Z,13.90
2018-03-14T06:44:13.350Z,14.00
2018-03-14T06:45:13.243Z,12.50
2018-03-14T06:46:13.176Z,15.30
2018-03-14T06:47:13.104Z,13.50
2018-03-14T06:48:13.045Z,14.40
2018-03-14T06:49:12.952Z,12.60
2018-03-14T06:50:12.788Z,13.50
2018-03-14T06:51:12.701Z,14.40
2018-03-14T06:52:12.604Z,11.70
2018-03-14T06:53:12.502Z,13.50
2018-03-14T06:54:12.484Z,10.30
2018-03-14T06:55:12.329Z,11.80
2018-03-14T06:56:12.222Z,10.90
2018-03-14T06:57:12.137Z,12.30
2018-03-14T06:58:12.045Z,12.30
2018-03-14T06:59:12.030Z,6.40
2018-03-14T07:00:11.963Z,7.90
2018-03-14T07:01:11.803Z,9.00
2018-03-14T07:02:11.702Z,7.00
2018-03-14T07:03:11.565Z,6.30
2018-03-14T07:04:11.477Z,7.80
2018-03-14T07:05:11.416Z,7.70
2018-03-14T07:06:11.364Z,6.20
2018-03-14T07:07:11.228Z,5.00
2018-03-14T07:08:11.129Z,7.90
2018-03-14T07:09:11.005Z,7.10
2018-03-14T07:10:10.935Z,6.80
2018-03-14T07:11:10.836Z,5.60
2018-03-14T07:12:10.793Z,6.50
2018-03-14T07:13:10.639Z,6.00
2018-03-14T07:14:10.551Z,7.60
2018-03-14T07:15:10.458Z,5.80
2018-03-14T07:16:10.340Z,4.90
2018-03-14T07:17:10.266Z,6.30
2018-03-14T07:18:10.183Z,6.40
2018-03-14T07:19:10.029Z,5.50
2018-03-14T07:20:09.948Z,6.10
2018-03-14T07:21:09.846Z,7.60
2018-03-14T07:22:09.762Z,6.40
2018-03-14T07:23:09.665Z,6.10
2018-03-14T07:24:09.618Z,6.70
2018-03-14T07:25:09.467Z,6.40
2018-03-14T07:26:09.364Z,6.50
2018-03-14T07:27:09.288Z,4.80
2018-03-14T07:28:09.191Z,5.20
2018-03-14T07:29:09.099Z,5.70
2018-03-14T07:30:09.048Z,6.70
2018-03-14T07:31:08.933Z,7.10
2018-03-14T07:32:08.819Z,7.70
2018-03-14T07:33:08.725Z,7.10
2018-03-14T07:34:08.666Z,6.00
2018-03-14T07:35:08.513Z,6.10
2018-03-14T07:36:08.477Z,6.80
2018-03-14T07:37:08.362Z,8.20
2018-03-14T07:38:08.259Z,8.00
2018-03-14T07:39:09.743Z,8.70
2018-03-14T07:40:08.042Z,7.90
2018-03-14T07:41:07.955Z,8.10
2018-03-14T07:42:07.933Z,8.20
2018-03-14T07:43:07.764Z,8.80
2018-03-14T07:44:07.653Z,13.00
2018-03-14T07:45:07.569Z,10.00
2018-03-14T07:46:07.460Z,8.30
2018-03-14T07:47:07.364Z,7.40
2018-03-14T07:48:07.340Z,6.10
2018-03-14T07:49:07.180Z,9.30
2018-03-14T07:50:07.093Z,8.40
2018-03-14T07:51:06.979Z,9.60
2018-03-14T07:52:06.891Z,10.10
2018-03-14T07:53:06.812Z,7.80
2018-03-14T07:54:06.777Z,9.40
2018-03-14T07:55:06.621Z,8.50
2018-03-14T07:56:06.549Z,11.90
2018-03-14T07:57:06.464Z,12.60
2018-03-14T07:58:06.360Z,10.60
2018-03-14T07:59:06.254Z,7.80
2018-03-14T08:00:06.197Z,11.50
2018-03-14T08:01:06.114Z,10.50
2018-03-14T08:02:05.988Z,9.10
2018-03-14T08:03:05.900Z,7.80
2018-03-14T08:04:05.816Z,8.30
2018-03-14T08:05:05.715Z,9.50
2018-03-14T08:06:05.677Z,9.80
2018-03-14T08:07:05.498Z,11.10
2018-03-14T08:08:05.414Z,10.10
2018-03-14T08:09:05.301Z,11.60
2018-03-14T08:10:05.201Z,8.50
2018-03-14T08:11:05.117Z,9.30
2018-03-14T08:12:05.050Z,8.00
2018-03-14T08:13:04.931Z,11.50
2018-03-14T08:14:04.888Z,11.70
2018-03-14T08:15:04.741Z,11.50
2018-03-14T08:16:04.638Z,9.10
2018-03-14T08:17:04.564Z,10.00
2018-03-14T08:18:04.503Z,10.20
2018-03-14T08:19:04.366Z,12.30
2018-03-14T08:20:04.274Z,10.00
2018-03-14T08:21:04.282Z,10.10
2018-03-14T08:22:04.095Z,10.10
2018-03-14T08:23:04.011Z,10.90
2018-03-14T08:24:03.968Z,10.40
2018-03-14T08:25:03.826Z,10.60
2018-03-14T08:26:03.735Z,11.40
2018-03-14T08:27:03.634Z,11.90
2018-03-14T08:28:03.649Z,10.70
2018-03-14T08:29:03.447Z,9.60
2018-03-14T08:30:03.380Z,11.30
2018-03-14T08:31:03.236Z,10.30
2018-03-14T08:32:03.200Z,11.00
2018-03-14T08:33:03.117Z,11.70
2018-03-14T08:34:03.061Z,12.00
2018-03-14T08:35:02.859Z,11.00
2018-03-14T08:36:02.855Z,10.70
2018-03-14T08:37:02.680Z,11.60
2018-03-14T08:38:02.581Z,12.10
2018-03-14T08:39:02.496Z,12.10
2018-03-14T08:40:02.397Z,9.60
2018-03-14T08:41:02.319Z,12.70
2018-03-14T08:42:02.317Z,13.10
2018-03-14T08:43:02.119Z,12.40
2018-03-14T08:44:02.031Z,11.30
2018-03-14T08:45:01.948Z,9.90
2018-03-14T08:46:01.853Z,9.00
2018-03-14T08:47:01.769Z,11.70
2018-03-14T08:48:01.735Z,8.80
2018-03-14T08:49:01.588Z,11.30
2018-03-14T08:50:01.521Z,13.60
2018-03-14T08:51:01.419Z,13.30
2018-03-14T08:52:01.388Z,12.00
2018-03-14T08:53:01.226Z,13.40
2018-03-14T08:54:01.293Z,13.20
2018-03-14T08:55:01.143Z,12.20
2018-03-14T08:56:01.024Z,12.70
2018-03-14T08:57:00.849Z,13.80
2018-03-14T08:58:00.722Z,14.50
2018-03-14T08:59:00.636Z,11.80
2018-03-14T09:00:00.607Z,12.20
2018-03-14T09:01:00.450Z,11.00
2018-03-14T09:02:00.394Z,14.40
2018-03-14T09:03:00.278Z,13.90
2018-03-14T09:04:00.223Z,13.30
2018-03-14T09:05:00.083Z,12.70
2018-03-14T09:06:00.008Z,14.50
2018-03-14T09:06:59.902Z,14.00
2018-03-14T09:07:59.829Z,11.30
2018-03-14T09:08:59.740Z,11.50
2018-03-14T09:09:59.610Z,12.20
2018-03-14T09:10:59.556Z,14.70
2018-03-14T09:11:59.535Z,12.90
2018-03-14T09:12:59.340Z,11.40
2018-03-14T09:13:59.402Z,12.90
2018-03-14T09:14:59.173Z,10.80
2018-03-14T09:15:59.083Z,14.60
2018-03-14T09:16:59.015Z,12.20
2018-03-14T09:17:58.925Z,14.80
2018-03-14T09:18:58.772Z,12.40
2018-03-14T09:19:58.689Z,14.50
2018-03-14T09:20:58.597Z,13.80
2018-03-14T09:21:58.538Z,11.50
2018-03-14T09:22:58.413Z,14.30
2018-03-14T09:23:58.344Z,13.50
2018-03-14T09:24:58.238Z,13.00
2018-03-14T09:25:58.153Z,13.30
2018-03-14T09:26:58.049Z,13.70
2018-03-14T09:27:57.939Z,12.70
2018-03-14T09:28:57.847Z,11.30
2018-03-14T09:29:57.791Z,14.00
2018-03-14T09:30:57.694Z,11.40
2018-03-14T09:31:57.610Z,13.40
2018-03-14T09:32:57.481Z,13.90
2018-03-14T09:33:57.390Z,12.30
2018-03-14T09:34:57.310Z,11.70
2018-03-14T09:35:57.270Z,13.60
2018-03-14T09:36:57.152Z,11.80
2018-03-14T09:37:57.117Z,12.00
2018-03-14T09:38:56.935Z,12.00
2018-03-14T09:39:56.864Z,13.20
2018-03-14T09:40:56.818Z,12.80
2018-03-14T09:41:56.727Z,12.10
2018-03-14T09:42:56.687Z,12.10
2018-03-14T09:43:56.498Z,13.80
2018-03-14T09:44:56.429Z,12.20
2018-03-14T09:45:56.318Z,14.00
2018-03-14T09:46:56.212Z,11.60
2018-03-14T09:47:56.174Z,11.50
2018-03-14T09:48:56.022Z,13.90
2018-03-14T09:49:55.975Z,12.60
2018-03-14T09:50:55.846Z,13.50
2018-03-14T09:51:55.954Z,16.20
2018-03-14T09:52:55.667Z,11.20
2018-03-14T09:53:55.634Z,11.70
2018-03-14T09:54:55.465Z,11.50
2018-03-14T09:55:55.368Z,12.80
2018-03-14T09:56:55.317Z,13.80
2018-03-14T09:57:55.217Z,15.40
2018-03-14T09:58:55.116Z,13.10
2018-03-14T09:59:55.051Z,15.50
2018-03-14T10:00:54.921Z,17.30
2018-03-14T10:01:54.815Z,15.90
2018-03-14T10:02:54.749Z,13.00
2018-03-14T10:03:54.686Z,16.00
2018-03-14T10:04:54.552Z,14.80
2018-03-14T10:05:54.510Z,12.70
2018-03-14T10:06:54.391Z,16.20
2018-03-14T10:07:54.270Z,16.30
2018-03-14T10:08:54.187Z,12.40
2018-03-14T10:09:54.079Z,17.60
2018-03-14T10:10:54.018Z,16.40
2018-03-14T10:11:53.956Z,14.80
2018-03-14T10:12:53.809Z,13.60
2018-03-14T10:13:53.736Z,13.60
2018-03-14T10:14:53.639Z,14.30
2018-03-14T10:15:53.545Z,13.40
2018-03-14T10:16:53.441Z,14.00
2018-03-14T10:17:53.372Z,14.40
2018-03-14T10:18:53.258Z,14.00
2018-03-14T10:19:53.157Z,14.60
2018-03-14T10:20:53.065Z,15.90
2018-03-14T10:21:53.017Z,13.80
2018-03-14T10:22:52.888Z,12.80
2018-03-14T10:23:52.823Z,16.10
2018-03-14T10:24:52.695Z,14.40
2018-03-14T10:25:52.633Z,16.70
2018-03-14T10:26:52.505Z,16.60
2018-03-14T10:27:52.403Z,16.20
2018-03-14T10:28:52.318Z,15.40
2018-03-14T10:29:52.302Z,14.10
2018-03-14T10:30:52.170Z,14.50
2018-03-14T10:31:52.081Z,15.90
2018-03-14T10:32:51.995Z,17.00
2018-03-14T10:33:51.900Z,15.80
2018-03-14T10:34:51.828Z,15.30
2018-03-14T10:35:51.739Z,15.90
2018-03-14T10:36:51.589Z,15.70
2018-03-14T10:37:51.553Z,17.20
2018-03-14T10:38:51.437Z,16.70
2018-03-14T10:39:51.343Z,16.80
2018-03-14T10:40:51.276Z,14.40
2018-03-14T10:41:51.183Z,15.60
2018-03-14T10:42:51.019Z,16.10
2018-03-14T10:43:50.959Z,15.00
2018-03-14T10:44:50.835Z,15.00
2018-03-14T10:45:50.736Z,18.80
2018-03-14T10:46:50.648Z,17.70
2018-03-14T10:47:50.603Z,16.80
2018-03-14T10:48:50.459Z,17.70
2018-03-14T10:49:50.381Z,16.70
2018-03-14T10:50:50.293Z,16.30
2018-03-14T10:51:50.203Z,16.30
2018-03-14T10:52:50.122Z,17.60
2018-03-14T10:53:50.029Z,15.60
2018-03-14T10:54:49.927Z,15.00
2018-03-14T10:55:49.833Z,16.40
2018-03-14T10:56:49.741Z,13.00
2018-03-14T10:57:49.670Z,15.10
2018-03-14T10:58:49.623Z,14.80
2018-03-14T10:59:49.534Z,17.40
2018-03-14T11:00:49.372Z,16.20
2018-03-14T11:01:49.287Z,13.30
2018-03-14T11:02:49.211Z,16.50
2018-03-14T11:03:49.113Z,15.30
2018-03-14T11:04:48.995Z,15.70
2018-03-14T11:05:48.954Z,14.80
2018-03-14T11:06:48.820Z,16.70
2018-03-14T11:07:48.780Z,16.20
2018-03-14T11:08:48.608Z,15.80
2018-03-14T11:09:48.509Z,16.30
2018-03-14T11:10:48.436Z,16.90
2018-03-14T11:11:48.361Z,15.00
2018-03-14T11:12:48.242Z,13.40
2018-03-14T11:13:48.191Z,15.00
2018-03-14T11:14:48.069Z,16.20
2018-03-14T11:15:47.967Z,18.40
2018-03-14T11:16:47.900Z,17.70
2018-03-14T11:17:47.831Z,14.80
2018-03-14T11:18:47.713Z,15.30
2018-03-14T11:19:47.647Z,15.10
2018-03-14T11:20:47.547Z,14.50
2018-03-14T11:21:47.458Z,15.40
2018-03-14T11:22:47.343Z,15.40
2018-03-14T11:23:47.340Z,16.80
2018-03-14T11:24:47.197Z,17.90
2018-03-14T11:25:47.083Z,18.10
2018-03-14T11:26:47.007Z,17.30
2018-03-14T11:27:46.886Z,14.70
2018-03-14T11:28:46.833Z,12.90
2018-03-14T11:29:46.765Z,13.70
2018-03-14T11:30:46.636Z,13.40
2018-03-14T11:31:46.551Z,13.80
2018-03-14T11:32:47.287Z,10.90
2018-03-14T11:33:46.355Z,13.20
2018-03-14T11:34:46.273Z,13.40
2018-03-14T11:35:46.166Z,12.30
2018-03-14T11:36:46.046Z,17.80
2018-03-14T11:37:45.991Z,18.90
2018-03-14T11:38:45.881Z,17.50
2018-03-14T11:39:45.789Z,18.20
2018-03-14T11:40:45.711Z,17.80
2018-03-14T11:41:45.634Z,18.00
2018-03-14T11:42:45.504Z,16.10
2018-03-14T11:43:45.428Z,16.80
2018-03-14T11:44:45.325Z,15.40
2018-03-14T11:45:45.237Z,14.10
2018-03-14T11:46:45.152Z,13.30
2018-03-14T11:47:45.124Z,13.40
2018-03-14T11:48:45.001Z,16.20
2018-03-14T11:49:44.887Z,17.90
2018-03-14T11:50:45.384Z,18.00
2018-03-14T11:51:44.684Z,16.00
2018-03-14T11:52:44.620Z,12.10
2018-03-14T11:53:44.556Z,11.00
2018-03-14T11:54:44.426Z,9.40
2018-03-14T11:55:44.329Z,10.40
2018-03-14T11:56:44.215Z,13.00
2018-03-14T11:57:44.104Z,11.10
2018-03-14T11:58:44.050Z,10.90
2018-03-14T11:59:44.040Z,10.70
2018-03-14T12:00:43.992Z,10.60
2018-03-14T12:01:43.764Z,11.10
2018-03-14T12:02:43.655Z,11.90
2018-03-14T12:03:43.546Z,12.10
2018-03-14T12:04:43.474Z,9.90
2018-03-14T12:05:43.447Z,9.50
2018-03-14T12:06:43.304Z,10.80
2018-03-14T12:07:43.225Z,11.40
2018-03-14T12:08:43.119Z,11.30
2018-03-14T12:09:43.034Z,10.90
2018-03-14T12:10:42.942Z,10.00
2018-03-14T12:11:42.892Z,10.70
2018-03-14T12:12:42.748Z,10.20
2018-03-14T12:13:42.652Z,10.50
2018-03-14T12:14:42.568Z,10.30
2018-03-14T12:15:42.550Z,10.70
2018-03-14T12:16:42.380Z,9.70
2018-03-14T12:17:42.356Z,10.20
2018-03-14T12:18:42.220Z,10.40
2018-03-14T12:19:42.079Z,12.10
2018-03-14T12:20:41.996Z,11.10
2018-03-14T12:21:41.913Z,10.50
2018-03-14T12:22:41.854Z,10.70
2018-03-14T12:23:41.784Z,10.50
2018-03-14T12:24:41.680Z,10.60
2018-03-14T12:25:41.556Z,10.00
2018-03-14T12:26:41.466Z,9.90
2018-03-14T12:27:41.338Z,10.00
2018-03-14T12:28:41.286Z,10.90
2018-03-14T12:29:41.231Z,10.70
2018-03-14T12:30:41.104Z,10.30
2018-03-14T12:31:41.008Z,10.10
2018-03-14T12:32:40.908Z,11.40
2018-03-14T12:33:40.820Z,10.10
2018-03-14T12:34:40.750Z,10.40
2018-03-14T12:35:40.677Z,10.50
2018-03-14T12:36:40.550Z,9.80
2018-03-14T12:37:40.434Z,10.10
2018-03-14T12:38:40.479Z,10.50
2018-03-14T12:39:40.270Z,11.60
2018-03-14T12:40:40.180Z,11.40
2018-03-14T12:41:40.146Z,10.20
2018-03-14T12:42:40.000Z,12.60
2018-03-14T12:43:39.900Z,9.60
2018-03-14T12:44:39.811Z,13.70
2018-03-14T12:45:39.718Z,12.80
2018-03-14T12:46:39.625Z,11.20
2018-03-14T12:47:40.300Z,9.00
2018-03-14T12:48:39.431Z,8.30
2018-03-14T12:49:39.341Z,8.90
2018-03-14T12:50:39.273Z,10.00
2018-03-14T12:51:39.176Z,9.00
2018-03-14T12:52:39.061Z,9.40
2018-03-14T12:53:39.031Z,10.20
2018-03-14T12:54:38.886Z,9.80
2018-03-14T12:55:38.801Z,10.00